Time,TemperatureF,DewpointF,PressureIn,WindDirection,WindDirectionDegrees,WindSpeedMPH,WindSpeedGustMPH,Humidity,HourlyPrecipIn,Conditions,Clouds,dailyrainin,SoftwareType,DateUTC
2013-03-03 00:00:00,36.5,35.2,30.19,SSE,148,0.0,0.0,95,0.02,,,0.43,WUHU216DAVISVP2,2013-03-03 08:00:00,
2013-03-03 00:05:00,36.4,35.1,30.19,SSE,148,0.0,0.0,95,0.02,,,0.00,WUHU216DAVISVP2,2013-03-03 08:05:00,
2013-03-03 00:10:00,36.3,35.0,30.19,SSE,148,0.0,0.0,95,0.01,,,0.00,WUHU216DAVISVP2,2013-03-03 08:10:00,
2013-03-03 00:15:00,36.2,34.9,30.19,SSE,148,0.0,0.0,95,0.01,,,0.00,WUHU216DAVISVP2,2013-03-03 08:15:00,
2013-03-03 00:20:00,36.1,34.8,30.19,SSE,148,0.0,1.0,95,0.01,,,0.00,WUHU216DAVISVP2,2013-03-03 08:20:00,
2013-03-03 00:25:00,36.0,34.7,30.19,SSE,148,0.0,1.0,95,0.01,,,0.00,WUHU216DAVISVP2,2013-03-03 08:25:00,
2013-03-03 00:30:00,35.9,34.6,30.19,SSE,148,0.0,0.0,95,0.01,,,0.00,WUHU216DAVISVP2,2013-03-03 08:30:00,
2013-03-03 00:35:00,35.9,34.6,30.19,SSE,148,0.0,0.0,95,0.01,,,0.00,WUHU216DAVISVP2,2013-03-03 08:35:00,
2013-03-03 00:40:00,35.8,34.5,30.19,SSE,148,0.0,0.0,95,0.01,,,0.00,WUHU216DAVISVP2,2013-03-03 08:40:00,
2013-03-03 00:45:00,35.7,34.4,30.19,SSE,148,0.0,2.0,95,0.01,,,0.00,WUHU216DAVISVP2,2013-03-03 08:45:00,
2013-03-03 00:50:00,35.7,34.4,30.19,SSE,148,1.0,3.0,95,0.01,,,0.00,WUHU216DAVISVP2,2013-03-03 08:50:00,
2013-03-03 00:55:00,35.6,34.3,30.19,SSE,148,0.0,3.0,95,0.00,,,0.00,WUHU216DAVISVP2,2013-03-03 08:55:00,
2013-03-03 01:00:00,35.5,34.2,30.20,SSE,148,0.0,1.0,95,0.00,,,0.00,WUHU216DAVISVP2,2013-03-03 09:00:00,
2013-03-03 01:05:00,35.4,34.1,30.20,SSE,148,0.0,0.0,95,0.00,,,0.00,WUHU216DAVISVP2,2013-03-03 09:05:00,
2013-03-03 01:10:00,35.4,34.1,30.20,SSE,148,0.0,0.0,95,0.00,,,0.00,WUHU216DAVISVP2,2013-03-03 09:10:00,
2013-03-03 01:15:00,35.4,34.1,30.20,SSE,148,0.0,0.0,95,0.00,,,0.00,WUHU216DAVISVP2,2013-03-03 09:15:00,
2013-03-03 01:20:00,35.3,34.0,30.20,SSE,148,0.0,0.0,95,0.00,,,0.00,WUHU216DAVISVP2,2013-03-03 09:20:00,
2013-03-03 01:25:00,35.2,33.9,30.20,SSE,148,0.0,0.0,95,0.00,,,0.00,WUHU216DAVISVP2,2013-03-03 09:25:00,
2013-03-03 01:30:00,35.1,33.8,30.21,SSE,148,0.0,0.0,95,0.00,,,0.00,WUHU216DAVISVP2,2013-03-03 09:30:00,
2013-03-03 01:35:00,35.0,33.7,30.21,SSE,148,0.0,0.0,95,0.00,,,0.00,WUHU216DAVISVP2,2013-03-03 09:35:00,
2013-03-03 01:40:00,34.9,33.6,30.21,SSE,148,0.0,1.0,95,0.00,,,0.00,WUHU216DAVISVP2,2013-03-03 09:40:00,
2013-03-03 01:45:00,34.9,33.6,30.21,SSE,148,0.0,1.0,95,0.00,,,0.00,WUHU216DAVISVP2,2013-03-03 09:45:00,
2013-03-03 01:50:00,34.8,33.5,30.21,SSE,148,0.0,0.0,95,0.00,,,0.00,WUHU216DAVISVP2,2013-03-03 09:50:00,
2013-03-03 01:55:00,34.7,33.4,30.21,SSE,148,0.0,0.0,95,0.00,,,0.00,WUHU216DAVISVP2,2013-03-03 09:55:00,
2013-03-03 02:00:00,34.6,33.3,30.21,SSE,148,0.0,0.0,95,0.00,,,0.00,WUHU216DAVISVP2,2013-03-03 10:00:00,
2013-03-03 02:05:00,34.4,33.1,30.21,SSE,148,0.0,0.0,95,0.00,,,0.00,WUHU216DAVISVP2,2013-03-03 10:05:00,
2013-03-03 02:10:00,34.4,33.1,30.21,SSE,148,0.0,0.0,95,0.00,,,0.00,WUHU216DAVISVP2,2013-03-03 10:10:00,
2013-03-03 02:15:00,34.6,33.3,30.21,SSE,148,0.0,0.0,95,0.00,,,0.00,WUHU216DAVISVP2,2013-03-03 10:15:00,
2013-03-03 02:20:00,34.6,33.3,30.21,SSE,148,0.0,0.0,95,0.00,,,0.00,WUHU216DAVISVP2,2013-03-03 10:20:00,
2013-03-03 02:25:00,34.6,33.3,30.22,SSE,148,0.0,0.0,95,0.00,,,0.00,WUHU216DAVISVP2,2013-03-03 10:25:00,
2013-03-03 02:30:00,34.7,33.6,30.22,SSE,148,0.0,0.0,96,0.00,,,0.00,WUHU216DAVISVP2,2013-03-03 10:30:00,
2013-03-03 02:35:00,34.7,33.6,30.22,SSE,148,0.0,0.0,96,0.00,,,0.00,WUHU216DAVISVP2,2013-03-03 10:35:00,
2013-03-03 02:40:00,34.6,33.3,30.22,SSE,148,0.0,0.0,95,0.00,,,0.00,WUHU216DAVISVP2,2013-03-03 10:40:00,
2013-03-03 02:45:00,34.4,33.1,30.21,SSE,148,0.0,0.0,95,0.00,,,0.00,WUHU216DAVISVP2,2013-03-03 10:45:00,
2013-03-03 02:51:00,34.3,33.0,30.21,SSE,148,0.0,0.0,95,0.00,,,0.00,WUHU216DAVISVP2,2013-03-03 10:51:00,
2013-03-03 02:56:00,34.3,33.0,30.21,SSE,148,0.0,0.0,95,0.00,,,0.00,WUHU216DAVISVP2,2013-03-03 10:56:00,
2013-03-03 03:01:00,34.6,33.3,30.21,SSE,148,0.0,0.0,95,0.00,,,0.00,WUHU216DAVISVP2,2013-03-03 11:01:00,
2013-03-03 03:06:00,34.8,33.7,30.21,SSE,148,1.0,1.0,96,0.00,,,0.00,WUHU216DAVISVP2,2013-03-03 11:06:00,
2013-03-03 03:11:00,35.0,33.9,30.21,SSE,148,0.0,1.0,96,0.00,,,0.00,WUHU216DAVISVP2,2013-03-03 11:11:00,
2013-03-03 03:16:00,34.8,33.7,30.22,SSE,148,0.0,1.0,96,0.00,,,0.00,WUHU216DAVISVP2,2013-03-03 11:16:00,
2013-03-03 03:21:00,34.6,33.3,30.22,SSE,148,0.0,0.0,95,0.00,,,0.00,WUHU216DAVISVP2,2013-03-03 11:21:00,
2013-03-03 03:26:00,34.5,33.2,30.22,SSE,148,0.0,0.0,95,0.00,,,0.00,WUHU216DAVISVP2,2013-03-03 11:26:00,
2013-03-03 03:31:00,34.6,33.3,30.22,SSE,148,0.0,0.0,95,0.00,,,0.00,WUHU216DAVISVP2,2013-03-03 11:31:00,
2013-03-03 03:36:00,34.8,33.7,30.22,SSE,148,0.0,0.0,96,0.00,,,0.00,WUHU216DAVISVP2,2013-03-03 11:36:00,
2013-03-03 03:41:00,34.9,33.8,30.22,SSE,148,0.0,1.0,96,0.00,,,0.00,WUHU216DAVISVP2,2013-03-03 11:41:00,
2013-03-03 03:46:00,34.9,33.8,30.22,SSE,148,0.0,1.0,96,0.00,,,0.00,WUHU216DAVISVP2,2013-03-03 11:46:00,
2013-03-03 03:51:00,35.1,34.0,30.22,SSE,148,0.0,0.0,96,0.00,,,0.00,WUHU216DAVISVP2,2013-03-03 11:51:00,
2013-03-03 03:56:00,35.3,34.2,30.22,SSE,148,0.0,3.0,96,0.00,,,0.00,WUHU216DAVISVP2,2013-03-03 11:56:00,
2013-03-03 04:01:00,35.2,34.1,30.22,SSE,148,0.0,3.0,96,0.00,,,0.00,WUHU216DAVISVP2,2013-03-03 12:01:00,
2013-03-03 04:06:00,35.2,34.1,30.23,SSE,148,0.0,1.0,96,0.00,,,0.00,WUHU216DAVISVP2,2013-03-03 12:06:00,
2013-03-03 04:11:00,35.0,33.9,30.23,SSE,148,0.0,0.0,96,0.00,,,0.00,WUHU216DAVISVP2,2013-03-03 12:11:00,
2013-03-03 04:16:00,34.9,33.8,30.23,SSE,148,0.0,0.0,96,0.00,,,0.00,WUHU216DAVISVP2,2013-03-03 12:16:00,
2013-03-03 04:21:00,34.7,33.6,30.23,SSE,148,0.0,0.0,96,0.00,,,0.00,WUHU216DAVISVP2,2013-03-03 12:21:00,
2013-03-03 04:26:00,34.6,33.3,30.23,SSE,148,0.0,0.0,95,0.00,,,0.00,WUHU216DAVISVP2,2013-03-03 12:26:00,
2013-03-03 04:31:00,34.4,33.1,30.23,SSE,148,0.0,2.0,95,0.00,,,0.00,WUHU216DAVISVP2,2013-03-03 12:31:00,
2013-03-03 04:36:00,34.5,33.4,30.23,SSE,148,0.0,2.0,96,0.00,,,0.00,WUHU216DAVISVP2,2013-03-03 12:36:00,
2013-03-03 04:41:00,34.4,33.3,30.24,SSE,148,0.0,0.0,96,0.00,,,0.00,WUHU216DAVISVP2,2013-03-03 12:41:00,
2013-03-03 04:46:00,34.7,33.6,30.24,SSE,148,0.0,3.0,96,0.00,,,0.00,WUHU216DAVISVP2,2013-03-03 12:46:00,
2013-03-03 04:51:00,34.8,33.7,30.24,SSE,148,0.0,3.0,96,0.00,,,0.00,WUHU216DAVISVP2,2013-03-03 12:51:00,
2013-03-03 04:56:00,34.8,33.7,30.24,SSE,148,0.0,0.0,96,0.00,,,0.00,WUHU216DAVISVP2,2013-03-03 12:56:00,
2013-03-03 05:01:00,34.9,33.8,30.23,SSE,148,0.0,1.0,96,0.00,,,0.00,WUHU216DAVISVP2,2013-03-03 13:01:00,
2013-03-03 05:06:00,35.1,34.0,30.24,SSE,148,2.0,2.0,96,0.00,,,0.00,WUHU216DAVISVP2,2013-03-03 13:06:00,
2013-03-03 05:11:00,35.3,34.2,30.23,SSE,148,0.0,2.0,96,0.00,,,0.00,WUHU216DAVISVP2,2013-03-03 13:11:00,
2013-03-03 05:16:00,35.4,34.3,30.24,SSE,148,0.0,2.0,96,0.00,,,0.00,WUHU216DAVISVP2,2013-03-03 13:16:00,
2013-03-03 05:21:00,35.5,34.4,30.24,SSE,148,0.0,3.0,96,0.00,,,0.00,WUHU216DAVISVP2,2013-03-03 13:21:00,
2013-03-03 05:26:00,35.6,34.5,30.24,SSE,148,1.0,3.0,96,0.00,,,0.00,WUHU216DAVISVP2,2013-03-03 13:26:00,
2013-03-03 05:31:00,35.7,34.6,30.24,SSE,148,0.0,2.0,96,0.00,,,0.00,WUHU216DAVISVP2,2013-03-03 13:31:00,
2013-03-03 05:36:00,35.8,34.7,30.24,SSE,148,0.0,3.0,96,0.00,,,0.00,WUHU216DAVISVP2,2013-03-03 13:36:00,
2013-03-03 05:41:00,35.9,34.8,30.24,SSE,148,2.0,3.0,96,0.00,,,0.00,WUHU216DAVISVP2,2013-03-03 13:41:00,
2013-03-03 05:46:00,36.0,34.9,30.24,SSW,200,3.0,5.0,96,0.00,,,0.00,WUHU216DAVISVP2,2013-03-03 13:46:00,
2013-03-03 05:51:00,36.1,35.0,30.24,SSE,163,2.0,6.0,96,0.00,,,0.00,WUHU216DAVISVP2,2013-03-03 13:51:00,
2013-03-03 05:56:00,36.1,35.0,30.24,SSW,206,5.0,6.0,96,0.00,,,0.00,WUHU216DAVISVP2,2013-03-03 13:56:00,
2013-03-03 06:01:00,36.1,35.0,30.24,SSE,164,5.0,5.0,96,0.00,,,0.00,WUHU216DAVISVP2,2013-03-03 14:01:00,
2013-03-03 06:06:00,36.0,34.9,30.25,SSE,167,0.0,5.0,96,0.00,,,0.00,WUHU216DAVISVP2,2013-03-03 14:06:00,
2013-03-03 06:11:00,36.0,34.9,30.25,SSW,206,0.0,6.0,96,0.00,,,0.00,WUHU216DAVISVP2,2013-03-03 14:11:00,
2013-03-03 06:16:00,36.0,34.9,30.25,SSW,205,0.0,6.0,96,0.00,,,0.00,WUHU216DAVISVP2,2013-03-03 14:16:00,
2013-03-03 06:21:00,35.9,34.8,30.25,SSW,205,0.0,2.0,96,0.00,,,0.00,WUHU216DAVISVP2,2013-03-03 14:21:00,
2013-03-03 06:26:00,35.9,34.8,30.25,SSW,205,0.0,4.0,96,0.00,,,0.00,WUHU216DAVISVP2,2013-03-03 14:26:00,
2013-03-03 06:31:00,35.9,34.6,30.25,SSW,205,0.0,4.0,95,0.00,,,0.00,WUHU216DAVISVP2,2013-03-03 14:31:00,
2013-03-03 06:36:00,35.9,34.6,30.25,SSW,205,0.0,1.0,95,0.00,,,0.00,WUHU216DAVISVP2,2013-03-03 14:36:00,
2013-03-03 06:41:00,35.9,34.6,30.25,SSW,205,0.0,1.0,95,0.00,,,0.00,WUHU216DAVISVP2,2013-03-03 14:41:00,
2013-03-03 06:46:00,35.9,34.6,30.25,SSW,211,3.0,6.0,95,0.00,,,0.00,WUHU216DAVISVP2,2013-03-03 14:46:00,
2013-03-03 06:51:00,35.9,34.8,30.25,SSW,199,3.0,6.0,96,0.00,,,0.00,WUHU216DAVISVP2,2013-03-03 14:51:00,
2013-03-03 06:56:00,35.9,34.8,30.25,SSW,200,0.0,5.0,96,0.00,,,0.00,WUHU216DAVISVP2,2013-03-03 14:56:00,
2013-03-03 07:01:00,35.9,34.6,30.25,SSW,199,0.0,3.0,95,0.00,,,0.00,WUHU216DAVISVP2,2013-03-03 15:01:00,
2013-03-03 07:06:00,35.8,34.5,30.25,SSW,200,2.0,3.0,95,0.00,,,0.00,WUHU216DAVISVP2,2013-03-03 15:06:00,
2013-03-03 07:11:00,35.8,34.5,30.25,SSW,199,0.0,4.0,95,0.00,,,0.00,WUHU216DAVISVP2,2013-03-03 15:11:00,
2013-03-03 07:16:00,35.9,34.6,30.25,SSW,200,0.0,4.0,95,0.00,,,0.00,WUHU216DAVISVP2,2013-03-03 15:16:00,
2013-03-03 07:21:00,35.8,34.5,30.25,SSW,205,0.0,3.0,95,0.00,,,0.00,WUHU216DAVISVP2,2013-03-03 15:21:00,
2013-03-03 07:26:00,35.9,34.6,30.25,SSW,205,0.0,3.0,95,0.00,,,0.00,WUHU216DAVISVP2,2013-03-03 15:26:00,
2013-03-03 07:31:00,35.9,34.6,30.25,SSW,205,0.0,3.0,95,0.00,,,0.00,WUHU216DAVISVP2,2013-03-03 15:31:00,
2013-03-03 07:36:00,36.0,34.7,30.25,SSW,205,3.0,3.0,95,0.00,,,0.00,WUHU216DAVISVP2,2013-03-03 15:36:00,
2013-03-03 07:41:00,36.1,34.8,30.25,SSW,205,0.0,3.0,95,0.00,,,0.00,WUHU216DAVISVP2,2013-03-03 15:41:00,
2013-03-03 07:46:00,36.2,34.9,30.25,SSW,205,0.0,2.0,95,0.00,,,0.00,WUHU216DAVISVP2,2013-03-03 15:46:00,
2013-03-03 07:51:00,36.3,35.0,30.26,SSW,205,0.0,1.0,95,0.00,,,0.00,WUHU216DAVISVP2,2013-03-03 15:51:00,
2013-03-03 07:56:00,36.5,35.4,30.25,SSW,203,0.0,4.0,96,0.00,,,0.00,WUHU216DAVISVP2,2013-03-03 15:56:00,
2013-03-03 08:01:00,36.6,35.5,30.26,SSW,204,0.0,4.0,96,0.00,,,0.00,WUHU216DAVISVP2,2013-03-03 16:01:00,
2013-03-03 08:06:00,36.8,35.5,30.26,SSW,204,1.0,2.0,95,0.00,,,0.00,WUHU216DAVISVP2,2013-03-03 16:06:00,
2013-03-03 08:11:00,37.2,36.1,30.26,SSW,204,0.0,3.0,96,0.00,,,0.00,WUHU216DAVISVP2,2013-03-03 16:11:00,
2013-03-03 08:16:00,37.7,36.6,30.26,South,183,0.0,4.0,96,0.00,,,0.00,WUHU216DAVISVP2,2013-03-03 16:16:00,
2013-03-03 08:21:00,37.8,36.5,30.27,South,187,0.0,4.0,95,0.00,,,0.00,WUHU216DAVISVP2,2013-03-03 16:21:00,
2013-03-03 08:26:00,38.1,36.5,30.27,South,188,0.0,4.0,94,0.00,,,0.00,WUHU216DAVISVP2,2013-03-03 16:26:00,
2013-03-03 08:31:00,38.5,37.1,30.27,SSW,195,0.0,3.0,95,0.00,,,0.00,WUHU216DAVISVP2,2013-03-03 16:31:00,
2013-03-03 08:36:00,39.1,37.7,30.27,SSW,195,0.0,3.0,95,0.00,,,0.00,WUHU216DAVISVP2,2013-03-03 16:36:00,
2013-03-03 08:41:00,39.6,38.2,30.27,SSW,195,0.0,0.0,95,0.00,,,0.00,WUHU216DAVISVP2,2013-03-03 16:41:00,
2013-03-03 08:46:00,39.7,38.1,30.27,SSW,195,0.0,2.0,94,0.00,,,0.00,WUHU216DAVISVP2,2013-03-03 16:46:00,
2013-03-03 08:51:00,39.9,38.0,30.27,SSW,195,0.0,2.0,93,0.00,,,0.00,WUHU216DAVISVP2,2013-03-03 16:51:00,
2013-03-03 08:56:00,40.0,37.8,30.27,SW,215,4.0,5.0,92,0.00,,,0.00,WUHU216DAVISVP2,2013-03-03 16:56:00,
2013-03-03 09:01:00,39.9,37.4,30.27,SW,214,0.0,5.0,91,0.00,,,0.00,WUHU216DAVISVP2,2013-03-03 17:01:00,
2013-03-03 09:06:00,40.1,37.6,30.27,SSW,200,1.0,5.0,91,0.00,,,0.00,WUHU216DAVISVP2,2013-03-03 17:06:00,
2013-03-03 09:11:00,40.3,37.3,30.27,SSW,202,3.0,7.0,89,0.00,,,0.00,WUHU216DAVISVP2,2013-03-03 17:11:00,
2013-03-03 09:16:00,40.5,37.2,30.27,South,171,3.0,7.0,88,0.00,,,0.00,WUHU216DAVISVP2,2013-03-03 17:16:00,
2013-03-03 09:21:00,40.7,37.4,30.27,SSW,192,0.0,6.0,88,0.00,,,0.00,WUHU216DAVISVP2,2013-03-03 17:21:00,
2013-03-03 09:26:00,41.1,37.8,30.27,SSW,193,0.0,5.0,88,0.00,,,0.00,WUHU216DAVISVP2,2013-03-03 17:26:00,
2013-03-03 09:31:00,41.6,37.4,30.27,South,188,0.0,4.0,85,0.00,,,0.00,WUHU216DAVISVP2,2013-03-03 17:31:00,
2013-03-03 09:36:00,42.1,38.2,30.27,South,186,0.0,4.0,86,0.00,,,0.00,WUHU216DAVISVP2,2013-03-03 17:36:00,
2013-03-03 09:41:00,42.7,38.2,30.27,South,179,3.0,3.0,84,0.00,,,0.00,WUHU216DAVISVP2,2013-03-03 17:41:00,
2013-03-03 09:46:00,42.8,37.7,30.26,South,178,0.0,4.0,82,0.00,,,0.00,WUHU216DAVISVP2,2013-03-03 17:46:00,
2013-03-03 09:51:00,43.5,38.4,30.26,South,178,0.0,4.0,82,0.00,,,0.00,WUHU216DAVISVP2,2013-03-03 17:51:00,
2013-03-03 09:56:00,44.5,38.7,30.26,NW,323,2.0,4.0,80,0.00,,,0.00,WUHU216DAVISVP2,2013-03-03 17:56:00,
2013-03-03 10:01:00,44.1,37.1,30.26,NW,323,0.0,4.0,76,0.00,,,0.00,WUHU216DAVISVP2,2013-03-03 18:01:00,
2013-03-03 10:06:00,44.1,37.7,30.26,WNW,303,0.0,5.0,78,0.00,,,0.00,WUHU216DAVISVP2,2013-03-03 18:06:00,
2013-03-03 10:11:00,44.0,37.0,30.26,WNW,297,0.0,5.0,76,0.00,,,0.00,WUHU216DAVISVP2,2013-03-03 18:11:00,
2013-03-03 10:16:00,44.2,37.5,30.26,WNW,294,0.0,5.0,77,0.00,,,0.00,WUHU216DAVISVP2,2013-03-03 18:16:00,
2013-03-03 10:21:00,44.6,37.6,30.26,WNW,303,5.0,5.0,76,0.00,,,0.00,WUHU216DAVISVP2,2013-03-03 18:21:00,
2013-03-03 10:26:00,44.3,36.3,30.26,NW,304,8.0,8.0,73,0.00,,,0.00,WUHU216DAVISVP2,2013-03-03 18:26:00,
2013-03-03 10:31:00,44.1,36.7,30.26,NW,306,0.0,10.0,75,0.00,,,0.00,WUHU216DAVISVP2,2013-03-03 18:31:00,
2013-03-03 10:36:00,45.0,37.3,30.26,NW,323,4.0,10.0,74,0.00,,,0.00,WUHU216DAVISVP2,2013-03-03 18:36:00,
2013-03-03 10:41:00,45.2,37.1,30.26,NW,309,0.0,6.0,73,0.00,,,0.00,WUHU216DAVISVP2,2013-03-03 18:41:00,
2013-03-03 10:46:00,45.5,36.7,30.26,North,349,0.0,7.0,71,0.00,,,0.00,WUHU216DAVISVP2,2013-03-03 18:46:00,
2013-03-03 10:51:00,45.7,36.6,30.26,North,351,2.0,9.0,70,0.01,,,0.01,WUHU216DAVISVP2,2013-03-03 18:51:00,
2013-03-03 10:56:00,45.9,36.8,30.25,NNW,336,0.0,9.0,70,0.01,,,0.01,WUHU216DAVISVP2,2013-03-03 18:56:00,
2013-03-03 11:01:00,46.0,37.2,30.25,NNW,346,0.0,6.0,71,0.01,,,0.01,WUHU216DAVISVP2,2013-03-03 19:01:00,
2013-03-03 11:06:00,45.9,36.0,30.25,WNW,302,5.0,11.0,68,0.01,,,0.01,WUHU216DAVISVP2,2013-03-03 19:06:00,
2013-03-03 11:11:00,45.6,36.8,30.25,NNW,329,7.0,11.0,71,0.01,,,0.01,WUHU216DAVISVP2,2013-03-03 19:11:00,
2013-03-03 11:16:00,45.5,36.0,30.25,NW,309,3.0,15.0,69,0.01,,,0.01,WUHU216DAVISVP2,2013-03-03 19:16:00,
2013-03-03 11:21:00,45.8,35.9,30.26,NW,320,0.0,15.0,68,0.01,,,0.01,WUHU216DAVISVP2,2013-03-03 19:21:00,
2013-03-03 11:26:00,46.0,36.9,30.25,WNW,299,0.0,7.0,70,0.01,,,0.01,WUHU216DAVISVP2,2013-03-03 19:26:00,
2013-03-03 11:31:00,46.1,37.0,30.26,NNW,343,7.0,11.0,70,0.01,,,0.01,WUHU216DAVISVP2,2013-03-03 19:31:00,
2013-03-03 11:36:00,45.9,36.0,30.26,NW,326,4.0,11.0,68,0.01,,,0.01,WUHU216DAVISVP2,2013-03-03 19:36:00,
2013-03-03 11:41:00,45.6,35.0,30.26,NW,319,0.0,13.0,66,0.01,,,0.01,WUHU216DAVISVP2,2013-03-03 19:41:00,
2013-03-03 11:46:00,46.0,36.1,30.26,NW,311,4.0,13.0,68,0.01,,,0.01,WUHU216DAVISVP2,2013-03-03 19:46:00,
2013-03-03 11:51:00,46.6,34.4,30.26,NE,56,3.0,9.0,62,0.00,,,0.01,WUHU216DAVISVP2,2013-03-03 19:51:00,
2013-03-03 11:56:00,47.1,33.6,30.26,NNW,342,4.0,10.0,59,0.00,,,0.01,WUHU216DAVISVP2,2013-03-03 19:56:00,
2013-03-03 12:01:00,47.3,34.2,30.26,WNW,284,1.0,10.0,60,0.00,,,0.01,WUHU216DAVISVP2,2013-03-03 20:01:00,
2013-03-03 12:06:00,47.4,35.5,30.26,North,350,8.0,10.0,63,0.00,,,0.01,WUHU216DAVISVP2,2013-03-03 20:06:00,
2013-03-03 12:11:00,47.8,32.4,30.26,NNW,342,11.0,13.0,55,0.00,,,0.01,WUHU216DAVISVP2,2013-03-03 20:11:00,
2013-03-03 12:16:00,47.0,32.6,30.26,NNW,329,6.0,14.0,57,0.00,,,0.01,WUHU216DAVISVP2,2013-03-03 20:16:00,
2013-03-03 12:21:00,46.9,31.6,30.26,North,350,8.0,14.0,55,0.00,,,0.01,WUHU216DAVISVP2,2013-03-03 20:21:00,
2013-03-03 12:26:00,46.9,31.6,30.26,NNW,344,4.0,13.0,55,0.00,,,0.01,WUHU216DAVISVP2,2013-03-03 20:26:00,
2013-03-03 12:31:00,46.3,31.5,30.26,NW,325,6.0,14.0,56,0.00,,,0.01,WUHU216DAVISVP2,2013-03-03 20:31:00,
2013-03-03 12:36:00,46.0,32.5,30.26,NW,314,4.0,14.0,59,0.00,,,0.01,WUHU216DAVISVP2,2013-03-03 20:36:00,
2013-03-03 12:41:00,46.2,32.3,30.26,NNW,331,6.0,10.0,58,0.00,,,0.01,WUHU216DAVISVP2,2013-03-03 20:41:00,
2013-03-03 12:46:00,45.9,32.9,30.26,NW,325,4.0,11.0,60,0.00,,,0.01,WUHU216DAVISVP2,2013-03-03 20:46:00,
2013-03-03 12:51:00,45.7,33.1,30.26,NW,309,4.0,11.0,61,0.00,,,0.01,WUHU216DAVISVP2,2013-03-03 20:51:00,
2013-03-03 12:56:00,45.4,33.2,30.26,North,355,4.0,10.0,62,0.00,,,0.01,WUHU216DAVISVP2,2013-03-03 20:56:00,
2013-03-03 13:01:00,45.5,33.7,30.26,NW,326,4.0,9.0,63,0.00,,,0.01,WUHU216DAVISVP2,2013-03-03 21:01:00,
2013-03-03 13:06:00,45.7,33.5,30.26,WNW,295,4.0,11.0,62,0.00,,,0.01,WUHU216DAVISVP2,2013-03-03 21:06:00,
2013-03-03 13:11:00,45.6,34.2,30.26,WNW,288,5.0,12.0,64,0.00,,,0.01,WUHU216DAVISVP2,2013-03-03 21:11:00,
2013-03-03 13:16:00,45.7,33.5,30.26,WNW,295,3.0,12.0,62,0.00,,,0.01,WUHU216DAVISVP2,2013-03-03 21:16:00,
2013-03-03 13:21:00,45.8,32.8,30.26,NNW,340,7.0,11.0,60,0.00,,,0.01,WUHU216DAVISVP2,2013-03-03 21:21:00,
2013-03-03 13:26:00,46.3,33.2,30.26,WNW,288,10.0,11.0,60,0.00,,,0.01,WUHU216DAVISVP2,2013-03-03 21:26:00,
2013-03-03 13:31:00,46.3,33.7,30.26,WNW,290,5.0,12.0,61,0.00,,,0.01,WUHU216DAVISVP2,2013-03-03 21:31:00,
2013-03-03 13:36:00,46.4,34.2,30.26,WNW,303,0.0,12.0,62,0.00,,,0.01,WUHU216DAVISVP2,2013-03-03 21:36:00,
2013-03-03 13:41:00,46.2,33.2,30.26,WNW,292,0.0,9.0,60,0.00,,,0.01,WUHU216DAVISVP2,2013-03-03 21:41:00,
2013-03-03 13:46:00,46.2,34.0,30.26,WNW,298,6.0,9.0,62,0.00,,,0.01,WUHU216DAVISVP2,2013-03-03 21:46:00,
2013-03-03 13:51:00,46.3,33.2,30.26,NW,322,3.0,7.0,60,0.00,,,0.01,WUHU216DAVISVP2,2013-03-03 21:51:00,
2013-03-03 13:56:00,46.0,32.5,30.26,WNW,295,5.0,10.0,59,0.00,,,0.01,WUHU216DAVISVP2,2013-03-03 21:56:00,
2013-03-03 14:01:00,45.7,32.7,30.26,NW,319,0.0,10.0,60,0.00,,,0.01,WUHU216DAVISVP2,2013-03-03 22:01:00,
2013-03-03 14:06:00,45.6,32.6,30.26,NW,304,0.0,10.0,60,0.00,,,0.01,WUHU216DAVISVP2,2013-03-03 22:06:00,
2013-03-03 14:11:00,45.7,33.5,30.26,NW,317,0.0,9.0,62,0.00,,,0.01,WUHU216DAVISVP2,2013-03-03 22:11:00,
2013-03-03 14:16:00,46.0,33.8,30.26,NW,313,0.0,9.0,62,0.00,,,0.01,WUHU216DAVISVP2,2013-03-03 22:16:00,
2013-03-03 14:21:00,46.3,33.7,30.26,NW,313,0.0,5.0,61,0.00,,,0.01,WUHU216DAVISVP2,2013-03-03 22:21:00,
2013-03-03 14:26:00,46.3,33.7,30.26,NW,311,0.0,4.0,61,0.00,,,0.01,WUHU216DAVISVP2,2013-03-03 22:26:00,
2013-03-03 14:31:00,46.3,33.7,30.27,NW,313,0.0,5.0,61,0.00,,,0.01,WUHU216DAVISVP2,2013-03-03 22:31:00,
2013-03-03 14:36:00,46.3,33.7,30.26,WNW,298,0.0,8.0,61,0.00,,,0.01,WUHU216DAVISVP2,2013-03-03 22:36:00,
2013-03-03 14:41:00,46.2,33.2,30.26,NW,309,0.0,8.0,60,0.00,,,0.01,WUHU216DAVISVP2,2013-03-03 22:41:00,
2013-03-03 14:46:00,46.3,32.8,30.26,NW,316,3.0,7.0,59,0.00,,,0.01,WUHU216DAVISVP2,2013-03-03 22:46:00,
2013-03-03 14:51:00,46.3,33.7,30.26,NNW,329,3.0,6.0,61,0.00,,,0.01,WUHU216DAVISVP2,2013-03-03 22:51:00,
2013-03-03 14:56:00,46.6,33.1,30.27,NNW,337,4.0,11.0,59,0.00,,,0.01,WUHU216DAVISVP2,2013-03-03 22:56:00,
2013-03-03 15:01:00,46.5,32.6,30.27,WNW,300,0.0,11.0,58,0.00,,,0.01,WUHU216DAVISVP2,2013-03-03 23:01:00,
2013-03-03 15:06:00,46.4,32.9,30.27,WNW,295,0.0,10.0,59,0.00,,,0.01,WUHU216DAVISVP2,2013-03-03 23:06:00,
2013-03-03 15:11:00,46.4,33.8,30.27,WNW,303,0.0,9.0,61,0.00,,,0.01,WUHU216DAVISVP2,2013-03-03 23:11:00,
2013-03-03 15:16:00,46.6,34.0,30.27,NW,315,6.0,6.0,61,0.00,,,0.01,WUHU216DAVISVP2,2013-03-03 23:16:00,
2013-03-03 15:21:00,46.8,33.7,30.27,NW,310,0.0,7.0,60,0.00,,,0.01,WUHU216DAVISVP2,2013-03-03 23:21:00,
2013-03-03 15:26:00,47.0,35.5,30.27,SE,135,0.0,7.0,64,0.00,,,0.01,WUHU216DAVISVP2,2013-03-03 23:26:00,
2013-03-03 15:31:00,46.8,35.8,30.27,NNW,327,0.0,5.0,65,0.00,,,0.01,WUHU216DAVISVP2,2013-03-03 23:31:00,
2013-03-03 15:36:00,46.5,35.9,30.27,NNE,30,0.0,6.0,66,0.00,,,0.01,WUHU216DAVISVP2,2013-03-03 23:36:00,
2013-03-03 15:41:00,46.3,35.7,30.27,ENE,76,3.0,6.0,66,0.00,,,0.01,WUHU216DAVISVP2,2013-03-03 23:41:00,
2013-03-03 15:46:00,45.8,35.9,30.27,ESE,121,0.0,6.0,68,0.00,,,0.01,WUHU216DAVISVP2,2013-03-03 23:46:00,
2013-03-03 15:51:00,45.4,35.9,30.27,ESE,113,0.0,5.0,69,0.00,,,0.01,WUHU216DAVISVP2,2013-03-03 23:51:00,
2013-03-03 15:56:00,45.0,35.9,30.27,East,91,0.0,4.0,70,0.00,,,0.01,WUHU216DAVISVP2,2013-03-03 23:56:00,
2013-03-03 16:01:00,44.9,36.2,30.27,East,90,0.0,4.0,71,0.00,,,0.01,WUHU216DAVISVP2,2013-03-04 00:01:00,
2013-03-03 16:06:00,44.8,36.1,30.27,ENE,72,1.0,3.0,71,0.00,,,0.01,WUHU216DAVISVP2,2013-03-04 00:06:00,
2013-03-03 16:11:00,44.6,36.2,30.27,ESE,105,0.0,5.0,72,0.00,,,0.01,WUHU216DAVISVP2,2013-03-04 00:11:00,
2013-03-03 16:16:00,44.4,36.0,30.28,ESE,105,0.0,5.0,72,0.00,,,0.01,WUHU216DAVISVP2,2013-03-04 00:16:00,
2013-03-03 16:21:00,44.5,36.5,30.27,ESE,105,0.0,2.0,73,0.00,,,0.01,WUHU216DAVISVP2,2013-03-04 00:21:00,
2013-03-03 16:26:00,44.6,36.2,30.27,ENE,69,0.0,5.0,72,0.00,,,0.01,WUHU216DAVISVP2,2013-03-04 00:26:00,
2013-03-03 16:31:00,44.7,36.0,30.27,ENE,70,0.0,5.0,71,0.00,,,0.01,WUHU216DAVISVP2,2013-03-04 00:31:00,
2013-03-03 16:36:00,44.8,36.4,30.27,ENE,70,0.0,1.0,72,0.00,,,0.01,WUHU216DAVISVP2,2013-03-04 00:36:00,
2013-03-03 16:41:00,44.5,36.5,30.27,ENE,69,0.0,1.0,73,0.00,,,0.01,WUHU216DAVISVP2,2013-03-04 00:41:00,
2013-03-03 16:46:00,44.2,36.2,30.27,ENE,72,0.0,1.0,73,0.00,,,0.01,WUHU216DAVISVP2,2013-03-04 00:46:00,
2013-03-03 16:51:00,44.1,36.4,30.27,ESE,105,0.0,4.0,74,0.00,,,0.01,WUHU216DAVISVP2,2013-03-04 00:51:00,
2013-03-03 16:56:00,44.0,36.0,30.28,ESE,102,0.0,4.0,73,0.00,,,0.01,WUHU216DAVISVP2,2013-03-04 00:56:00,
2013-03-03 17:01:00,43.9,36.2,30.28,ESE,103,0.0,4.0,74,0.00,,,0.01,WUHU216DAVISVP2,2013-03-04 01:01:00,
2013-03-03 17:06:00,43.8,36.5,30.27,ESE,103,0.0,0.0,75,0.00,,,0.01,WUHU216DAVISVP2,2013-03-04 01:06:00,
2013-03-03 17:11:00,43.7,36.0,30.28,ESE,102,0.0,0.0,74,0.00,,,0.01,WUHU216DAVISVP2,2013-03-04 01:11:00,
2013-03-03 17:16:00,43.6,35.9,30.28,ESE,103,0.0,0.0,74,0.00,,,0.01,WUHU216DAVISVP2,2013-03-04 01:16:00,
2013-03-03 17:21:00,43.6,36.3,30.28,ESE,102,0.0,0.0,75,0.00,,,0.01,WUHU216DAVISVP2,2013-03-04 01:21:00,
2013-03-03 17:26:00,43.6,36.6,30.28,ESE,102,0.0,0.0,76,0.00,,,0.01,WUHU216DAVISVP2,2013-03-04 01:26:00,
2013-03-03 17:31:00,43.6,36.6,30.28,ESE,102,0.0,1.0,76,0.00,,,0.01,WUHU216DAVISVP2,2013-03-04 01:31:00,
2013-03-03 17:36:00,43.4,36.4,30.28,ESE,102,0.0,1.0,76,0.00,,,0.01,WUHU216DAVISVP2,2013-03-04 01:36:00,
2013-03-03 17:41:00,43.1,36.7,30.28,ESE,103,0.0,0.0,78,0.00,,,0.01,WUHU216DAVISVP2,2013-03-04 01:41:00,
2013-03-03 17:46:00,43.1,36.4,30.28,ESE,103,0.0,0.0,77,0.00,,,0.01,WUHU216DAVISVP2,2013-03-04 01:46:00,
2013-03-03 17:51:00,42.9,36.2,30.28,ESE,103,0.0,0.0,77,0.00,,,0.01,WUHU216DAVISVP2,2013-03-04 01:51:00,
2013-03-03 17:56:00,42.6,36.3,30.29,ESE,102,0.0,0.0,78,0.00,,,0.01,WUHU216DAVISVP2,2013-03-04 01:56:00,
2013-03-03 18:01:00,42.3,36.0,30.29,ESE,103,0.0,0.0,78,0.00,,,0.01,WUHU216DAVISVP2,2013-03-04 02:01:00,
2013-03-03 18:06:00,41.7,35.4,30.29,ESE,103,0.0,0.0,78,0.00,,,0.01,WUHU216DAVISVP2,2013-03-04 02:06:00,
2013-03-03 18:11:00,41.3,35.3,30.29,ESE,103,0.0,0.0,79,0.00,,,0.01,WUHU216DAVISVP2,2013-03-04 02:11:00,
2013-03-03 18:16:00,41.0,35.3,30.29,ESE,102,0.0,0.0,80,0.00,,,0.01,WUHU216DAVISVP2,2013-03-04 02:16:00,
2013-03-03 18:21:00,40.7,35.0,30.29,ESE,103,0.0,0.0,80,0.00,,,0.01,WUHU216DAVISVP2,2013-03-04 02:21:00,
2013-03-03 18:26:00,40.4,35.0,30.29,ESE,102,0.0,0.0,81,0.00,,,0.01,WUHU216DAVISVP2,2013-03-04 02:26:00,
2013-03-03 18:31:00,40.2,34.8,30.29,ESE,103,0.0,0.0,81,0.00,,,0.01,WUHU216DAVISVP2,2013-03-04 02:31:00,
2013-03-03 18:36:00,39.9,34.6,30.29,ESE,102,0.0,0.0,81,0.00,,,0.01,WUHU216DAVISVP2,2013-03-04 02:36:00,
2013-03-03 18:41:00,39.7,34.4,30.29,ESE,103,0.0,0.0,81,0.00,,,0.01,WUHU216DAVISVP2,2013-03-04 02:41:00,
2013-03-03 18:46:00,39.7,34.7,30.29,ESE,102,0.0,0.0,82,0.00,,,0.01,WUHU216DAVISVP2,2013-03-04 02:46:00,
2013-03-03 18:51:00,39.8,34.5,30.29,ESE,103,0.0,0.0,81,0.00,,,0.01,WUHU216DAVISVP2,2013-03-04 02:51:00,
2013-03-03 18:56:00,39.7,34.7,30.29,ESE,103,0.0,0.0,82,0.00,,,0.01,WUHU216DAVISVP2,2013-03-04 02:56:00,
2013-03-03 19:01:00,39.7,34.7,30.29,ESE,102,0.0,0.0,82,0.00,,,0.01,WUHU216DAVISVP2,2013-03-04 03:01:00,
2013-03-03 19:06:00,39.7,34.4,30.29,ESE,103,0.0,0.0,81,0.00,,,0.01,WUHU216DAVISVP2,2013-03-04 03:06:00,
2013-03-03 19:11:00,39.7,34.4,30.29,ESE,102,0.0,0.0,81,0.00,,,0.01,WUHU216DAVISVP2,2013-03-04 03:11:00,
2013-03-03 19:16:00,39.5,34.2,30.29,ESE,103,0.0,0.0,81,0.00,,,0.01,WUHU216DAVISVP2,2013-03-04 03:16:00,
2013-03-03 19:21:00,39.2,34.2,30.29,ESE,103,0.0,0.0,82,0.00,,,0.01,WUHU216DAVISVP2,2013-03-04 03:21:00,
2013-03-03 19:26:00,38.8,34.1,30.29,ESE,103,0.0,0.0,83,0.00,,,0.01,WUHU216DAVISVP2,2013-03-04 03:26:00,
2013-03-03 19:31:00,38.6,33.9,30.30,ESE,102,0.0,0.0,83,0.00,,,0.01,WUHU216DAVISVP2,2013-03-04 03:31:00,
2013-03-03 19:36:00,38.5,33.8,30.29,ESE,103,0.0,0.0,83,0.00,,,0.01,WUHU216DAVISVP2,2013-03-04 03:36:00,
2013-03-03 19:41:00,38.5,34.1,30.30,ESE,102,0.0,0.0,84,0.00,,,0.01,WUHU216DAVISVP2,2013-03-04 03:41:00,
2013-03-03 19:46:00,38.5,34.1,30.30,ESE,103,0.0,0.0,84,0.00,,,0.01,WUHU216DAVISVP2,2013-03-04 03:46:00,
2013-03-03 19:51:00,38.4,33.7,30.29,ESE,102,0.0,0.0,83,0.00,,,0.01,WUHU216DAVISVP2,2013-03-04 03:51:00,
2013-03-03 19:56:00,38.4,33.7,30.29,ESE,103,0.0,0.0,83,0.00,,,0.01,WUHU216DAVISVP2,2013-03-04 03:56:00,
2013-03-03 20:01:00,38.5,33.5,30.29,ESE,103,0.0,0.0,82,0.00,,,0.01,WUHU216DAVISVP2,2013-03-04 04:01:00,
2013-03-03 20:06:00,38.7,33.7,30.29,ESE,103,0.0,0.0,82,0.00,,,0.01,WUHU216DAVISVP2,2013-03-04 04:06:00,
2013-03-03 20:11:00,39.0,33.4,30.29,ESE,103,0.0,0.0,80,0.00,,,0.01,WUHU216DAVISVP2,2013-03-04 04:11:00,
2013-03-03 20:16:00,39.3,33.4,30.29,ESE,103,0.0,0.0,79,0.00,,,0.01,WUHU216DAVISVP2,2013-03-04 04:16:00,
2013-03-03 20:21:00,39.1,33.2,30.29,ESE,103,0.0,0.0,79,0.00,,,0.01,WUHU216DAVISVP2,2013-03-04 04:21:00,
2013-03-03 20:26:00,38.9,33.0,30.29,ESE,103,0.0,0.0,79,0.00,,,0.01,WUHU216DAVISVP2,2013-03-04 04:26:00,
2013-03-03 20:31:00,38.9,32.3,30.29,ESE,103,0.0,0.0,77,0.00,,,0.01,WUHU216DAVISVP2,2013-03-04 04:31:00,
2013-03-03 20:36:00,39.0,32.4,30.29,ESE,103,0.0,0.0,77,0.00,,,0.01,WUHU216DAVISVP2,2013-03-04 04:36:00,
2013-03-03 20:41:00,39.0,32.8,30.29,ESE,102,0.0,0.0,78,0.00,,,0.01,WUHU216DAVISVP2,2013-03-04 04:41:00,
2013-03-03 20:46:00,38.8,32.6,30.29,ESE,103,0.0,0.0,78,0.00,,,0.01,WUHU216DAVISVP2,2013-03-04 04:46:00,
2013-03-03 20:51:00,38.8,32.2,30.29,ESE,102,0.0,0.0,77,0.00,,,0.01,WUHU216DAVISVP2,2013-03-04 04:51:00,
2013-03-03 20:56:00,39.2,32.6,30.29,ESE,103,0.0,0.0,77,0.00,,,0.01,WUHU216DAVISVP2,2013-03-04 04:56:00,
2013-03-03 21:00:00,39.3,32.4,30.29,ESE,103,0.0,0.0,76,0.00,,,0.01,WUHU216DAVISVP2,2013-03-04 05:00:00,
2013-03-03 21:05:00,39.3,32.7,30.29,ESE,102,0.0,0.0,77,0.00,,,0.01,WUHU216DAVISVP2,2013-03-04 05:05:00,
2013-03-03 21:10:00,39.1,32.9,30.29,ESE,103,0.0,0.0,78,0.00,,,0.01,WUHU216DAVISVP2,2013-03-04 05:10:00,
2013-03-03 21:15:00,39.0,32.8,30.29,ESE,103,0.0,0.0,78,0.00,,,0.01,WUHU216DAVISVP2,2013-03-04 05:15:00,
2013-03-03 21:20:00,38.9,33.0,30.30,ESE,102,0.0,0.0,79,0.00,,,0.01,WUHU216DAVISVP2,2013-03-04 05:20:00,
2013-03-03 21:25:00,38.3,32.7,30.30,ESE,103,0.0,0.0,80,0.00,,,0.01,WUHU216DAVISVP2,2013-03-04 05:25:00,
2013-03-03 21:30:00,37.7,32.7,30.30,ESE,103,0.0,0.0,82,0.00,,,0.01,WUHU216DAVISVP2,2013-03-04 05:30:00,
2013-03-03 21:35:00,37.1,32.4,30.30,ESE,102,0.0,0.0,83,0.00,,,0.01,WUHU216DAVISVP2,2013-03-04 05:35:00,
2013-03-03 21:40:00,36.8,32.4,30.30,ESE,103,0.0,0.0,84,0.00,,,0.01,WUHU216DAVISVP2,2013-03-04 05:40:00,
2013-03-03 21:45:00,36.8,32.4,30.30,ESE,103,0.0,2.0,84,0.00,,,0.01,WUHU216DAVISVP2,2013-03-04 05:45:00,
2013-03-03 21:50:00,36.9,32.5,30.30,ESE,103,0.0,2.0,84,0.00,,,0.01,WUHU216DAVISVP2,2013-03-04 05:50:00,
2013-03-03 21:55:00,36.9,32.5,30.30,ESE,103,0.0,2.0,84,0.00,,,0.01,WUHU216DAVISVP2,2013-03-04 05:55:00,
2013-03-03 22:00:00,36.9,32.5,30.30,ESE,103,0.0,2.0,84,0.00,,,0.01,WUHU216DAVISVP2,2013-03-04 06:00:00,
2013-03-03 22:05:00,36.7,32.3,30.30,ESE,102,0.0,0.0,84,0.00,,,0.01,WUHU216DAVISVP2,2013-03-04 06:05:00,
2013-03-03 22:10:00,36.4,32.3,30.30,ESE,103,0.0,0.0,85,0.00,,,0.01,WUHU216DAVISVP2,2013-03-04 06:10:00,
2013-03-03 22:15:00,36.0,31.9,30.30,ESE,102,0.0,0.0,85,0.00,,,0.01,WUHU216DAVISVP2,2013-03-04 06:15:00,
2013-03-03 22:20:00,35.8,32.0,30.30,ESE,103,0.0,0.0,86,0.00,,,0.01,WUHU216DAVISVP2,2013-03-04 06:20:00,
2013-03-03 22:25:00,35.7,31.9,30.30,ESE,103,0.0,0.0,86,0.00,,,0.01,WUHU216DAVISVP2,2013-03-04 06:25:00,
2013-03-03 22:30:00,35.7,31.9,30.30,ESE,103,0.0,1.0,86,0.00,,,0.01,WUHU216DAVISVP2,2013-03-04 06:30:00,
2013-03-03 22:35:00,35.7,31.9,30.30,ESE,102,0.0,1.0,86,0.00,,,0.01,WUHU216DAVISVP2,2013-03-04 06:35:00,
2013-03-03 22:40:00,35.6,31.8,30.30,ESE,103,0.0,0.0,86,0.00,,,0.01,WUHU216DAVISVP2,2013-03-04 06:40:00,
2013-03-03 22:45:00,35.6,31.8,30.30,ESE,103,0.0,0.0,86,0.00,,,0.01,WUHU216DAVISVP2,2013-03-04 06:45:00,
2013-03-03 22:50:00,35.5,31.7,30.30,ESE,103,0.0,0.0,86,0.00,,,0.01,WUHU216DAVISVP2,2013-03-04 06:50:00,
2013-03-03 22:55:00,35.6,31.8,30.30,ESE,103,0.0,0.0,86,0.00,,,0.01,WUHU216DAVISVP2,2013-03-04 06:55:00,
2013-03-03 23:00:00,35.5,31.7,30.30,ESE,103,0.0,0.0,86,0.00,,,0.01,WUHU216DAVISVP2,2013-03-04 07:00:00,
2013-03-03 23:05:00,35.3,31.5,30.30,ESE,102,0.0,0.0,86,0.00,,,0.01,WUHU216DAVISVP2,2013-03-04 07:05:00,
2013-03-03 23:10:00,35.2,31.4,30.30,ESE,103,0.0,0.0,86,0.00,,,0.01,WUHU216DAVISVP2,2013-03-04 07:10:00,
2013-03-03 23:15:00,35.1,31.3,30.30,ESE,103,0.0,0.0,86,0.00,,,0.01,WUHU216DAVISVP2,2013-03-04 07:15:00,
2013-03-03 23:20:00,35.1,31.3,30.30,ESE,103,0.0,0.0,86,0.00,,,0.01,WUHU216DAVISVP2,2013-03-04 07:20:00,
2013-03-03 23:25:00,35.2,31.4,30.30,ESE,102,0.0,0.0,86,0.00,,,0.01,WUHU216DAVISVP2,2013-03-04 07:25:00,
2013-03-03 23:30:00,35.3,31.2,30.30,ESE,102,0.0,0.0,85,0.00,,,0.01,WUHU216DAVISVP2,2013-03-04 07:30:00,
2013-03-03 23:35:00,35.4,31.0,30.30,ESE,102,0.0,0.0,84,0.00,,,0.01,WUHU216DAVISVP2,2013-03-04 07:35:00,
2013-03-03 23:40:00,35.4,31.0,30.30,ESE,103,0.0,0.0,84,0.00,,,0.01,WUHU216DAVISVP2,2013-03-04 07:40:00,
2013-03-03 23:45:00,35.3,30.9,30.30,ESE,102,0.0,0.0,84,0.00,,,0.01,WUHU216DAVISVP2,2013-03-04 07:45:00,
2013-03-03 23:50:00,35.2,30.8,30.30,ESE,103,0.0,0.0,84,0.00,,,0.01,WUHU216DAVISVP2,2013-03-04 07:50:00,
2013-03-03 23:55:00,35.2,30.8,30.30,ESE,102,0.0,0.0,84,0.00,,,0.01,WUHU216DAVISVP2,2013-03-04 07:55:00,